Antigo, Wisconsin
Current Conditions -  °F | °C
As of 5:55 PM on Sunday 23 Nov 2014 (Local Time) from KAIG Reporting Station
Moderate Fog Moderate Fog  
Wind Chill:   Ceiling: 300
Heat Index:   Visibility: 0mi
Dew Point:   Wind: 3mph
Humidity: 100%   Direction: 130°SE
Pressure: 29.38"   Gusts: NA
Location:  45.14°N, 89.15°W
Report Text: KAIG 232355Z AUTO 13003KT M1/4SM FG OVC003 04/04 A2938 RMK AO2 T00370037 10057 20035
Loading
Personal Weather Stations






























Interactive Weather Map New forecast layout! Learn more

10-Day Weather Forecast

Advertisements
Track Severe Weather on mobile